Time;durP1;ratioP1;P1;durP2;ratioP2;P2;SDS_P1;SDS_P2;PMS_P1;PMS_P2;Temp;Humidity;BMP_temperature;BMP_pressure;BME280_temperature;BME280_humidity;BME280_pressure;Samples;Min_cycle;Max_cycle;Signal;HPM_P1;HPM_P2
2024/02/27 00:00:12;;;;;;;;;;;7.30;58.60;;;;;;5090101;28;19962;-70
2024/02/27 00:02:38;;;;;;;;;;;7.30;57.90;;;;;;5090544;28;19963;-70
2024/02/27 00:05:04;;;;;;;;;;;7.30;58.40;;;;;;5091994;28;19947;-70
2024/02/27 00:07:30;;;;;;;;;;;7.20;58.00;;;;;;5090921;28;19920;-70
2024/02/27 00:09:58;;;;;;;;;;;7.20;58.50;;;;;;5092227;28;19916;-74
2024/02/27 00:12:25;;;;;;;;;;;7.20;58.80;;;;;;5091788;28;19920;-75
2024/02/27 00:14:52;;;;;;;;;;;7.10;58.10;;;;;;5090958;28;19916;-75
2024/02/27 00:17:20;;;;;;;;;;;7.10;58.50;;;;;;5092044;28;19919;-70
2024/02/27 00:19:46;;;;;;;;;;;7.10;58.70;;;;;;5090398;28;19920;-75
2024/02/27 00:22:12;;;;;;;;;;;7.10;59.20;;;;;;5090001;28;19982;-75
2024/02/27 00:24:38;;;;;;;;;;;7.10;59.60;;;;;;5094274;28;19942;-75
2024/02/27 00:27:04;;;;;;;;;;;7.00;59.50;;;;;;5077706;28;19922;-70
2024/02/27 00:29:31;;;;;;;;;;;7.00;58.80;;;;;;5111424;28;19916;-75
2024/02/27 00:31:58;;;;;;;;;;;7.00;59.70;;;;;;5095139;28;19954;-74
2024/02/27 00:34:24;;;;;;;;;;;7.00;59.60;;;;;;5095480;28;19919;-70
2024/02/27 00:36:49;;;;;;;;;;;7.00;59.70;;;;;;5096009;28;19922;-75
2024/02/27 00:39:16;;;;;;;;;;;6.90;59.80;;;;;;5095856;28;19926;-69
2024/02/27 00:41:46;;;;;;;;;;;6.90;60.00;;;;;;5093632;28;20334;-70
2024/02/27 00:44:12;;;;;;;;;;;6.80;59.70;;;;;;5095808;28;20007;-70
2024/02/27 00:46:38;;;;;;;;;;;6.70;60.10;;;;;;5095838;28;19924;-74
2024/02/27 00:49:04;;;;;;;;;;;6.70;60.30;;;;;;5095626;28;19916;-75
2024/02/27 00:51:30;;;;;;;;;;;6.60;61.80;;;;;;5093972;28;20469;-75
2024/02/27 00:53:57;;;;;;;;;;;6.50;61.10;;;;;;5095758;28;19931;-69
2024/02/27 00:56:23;;;;;;;;;;;6.50;61.00;;;;;;5094227;28;20388;-71
2024/02/27 00:58:48;;;;;;;;;;;6.50;60.80;;;;;;5094189;28;19919;-70
2024/02/27 01:01:14;;;;;;;;;;;6.50;60.70;;;;;;5094738;28;19927;-75
2024/02/27 01:03:40;;;;;;;;;;;6.50;61.10;;;;;;5093860;28;20311;-70
2024/02/27 01:06:07;;;;;;;;;;;6.40;61.20;;;;;;5077339;28;19920;-70
2024/02/27 01:08:33;;;;;;;;;;;6.30;60.50;;;;;;5094213;28;19920;-74
2024/02/27 01:10:59;;;;;;;;;;;6.40;60.90;;;;;;5093265;28;20003;-70
2024/02/27 01:13:26;;;;;;;;;;;6.40;60.90;;;;;;5095395;28;20409;-69
2024/02/27 01:15:52;;;;;;;;;;;6.40;60.90;;;;;;5093802;28;19912;-74
2024/02/27 01:18:18;;;;;;;;;;;6.40;61.20;;;;;;5095533;28;20380;-74
2024/02/27 01:20:44;;;;;;;;;;;6.40;60.80;;;;;;5094518;28;19916;-70
2024/02/27 01:23:10;;;;;;;;;;;6.40;60.70;;;;;;5093567;28;19923;-75
2024/02/27 01:25:36;;;;;;;;;;;6.30;61.00;;;;;;5093415;28;19922;-70
2024/02/27 01:28:02;;;;;;;;;;;6.30;61.50;;;;;;5094763;28;20300;-70
2024/02/27 01:30:27;;;;;;;;;;;6.30;61.50;;;;;;5093103;28;19916;-72
2024/02/27 01:32:53;;;;;;;;;;;6.20;61.50;;;;;;5094829;28;20353;-75
2024/02/27 01:35:19;;;;;;;;;;;6.20;61.40;;;;;;5093860;28;19912;-70
2024/02/27 01:37:45;;;;;;;;;;;6.30;61.60;;;;;;5093191;28;19926;-70
2024/02/27 01:40:12;;;;;;;;;;;6.20;60.90;;;;;;5092809;28;19950;-75
2024/02/27 01:42:38;;;;;;;;;;;6.20;61.50;;;;;;5094810;28;19973;-74
2024/02/27 01:45:04;;;;;;;;;;;6.20;61.50;;;;;;5092981;28;20296;-75
2024/02/27 01:47:31;;;;;;;;;;;6.20;61.30;;;;;;5093046;28;20011;-70
2024/02/27 01:49:57;;;;;;;;;;;6.20;61.20;;;;;;5094145;28;19938;-75
2024/02/27 01:52:23;;;;;;;;;;;6.20;61.20;;;;;;5092508;28;20353;-75
2024/02/27 01:54:51;;;;;;;;;;;6.20;61.50;;;;;;5093109;28;20421;-70
2024/02/27 01:57:19;;;;;;;;;;;6.10;61.50;;;;;;5093368;28;19920;-75
2024/02/27 01:59:46;;;;;;;;;;;6.10;61.70;;;;;;5076280;28;20014;-70
2024/02/27 02:02:12;;;;;;;;;;;6.10;61.80;;;;;;5092414;28;19916;-75
2024/02/27 02:04:38;;;;;;;;;;;6.10;61.40;;;;;;5092725;28;19942;-75
2024/02/27 02:07:04;;;;;;;;;;;6.00;62.20;;;;;;5094123;28;19920;-69
2024/02/27 02:09:31;;;;;;;;;;;6.00;62.10;;;;;;5093996;28;19916;-75
2024/02/27 02:11:58;;;;;;;;;;;6.00;61.80;;;;;;5093523;28;20010;-75
2024/02/27 02:14:25;;;;;;;;;;;6.00;62.20;;;;;;5075755;28;19912;-75
2024/02/27 02:16:51;;;;;;;;;;;5.90;62.30;;;;;;5093749;28;19920;-74
2024/02/27 02:19:17;;;;;;;;;;;5.90;62.20;;;;;;5092392;28;19957;-71
2024/02/27 02:21:46;;;;;;;;;;;6.00;62.50;;;;;;5091905;28;19920;-70
2024/02/27 02:24:12;;;;;;;;;;;5.90;62.30;;;;;;5092442;28;19958;-75
2024/02/27 02:26:40;;;;;;;;;;;5.90;62.00;;;;;;5092341;28;19920;-75
2024/02/27 02:29:06;;;;;;;;;;;5.90;62.20;;;;;;5093592;28;19923;-70
2024/02/27 02:31:32;;;;;;;;;;;5.90;62.00;;;;;;5074663;28;19924;-70
2024/02/27 02:33:58;;;;;;;;;;;5.90;61.90;;;;;;5092042;28;19915;-70
2024/02/27 02:36:24;;;;;;;;;;;5.90;62.10;;;;;;5092218;28;20334;-70
2024/02/27 02:38:50;;;;;;;;;;;5.90;62.10;;;;;;5092008;28;19916;-75
2024/02/27 02:41:16;;;;;;;;;;;6.00;62.00;;;;;;5092866;28;19927;-70
2024/02/27 02:43:42;;;;;;;;;;;5.90;62.20;;;;;;5093823;28;19915;-75
2024/02/27 02:46:08;;;;;;;;;;;5.90;62.50;;;;;;5093171;28;19920;-74
2024/02/27 02:48:35;;;;;;;;;;;5.90;62.70;;;;;;5091258;28;20361;-70
2024/02/27 02:51:01;;;;;;;;;;;5.90;62.80;;;;;;5091401;28;19916;-74
2024/02/27 02:53:27;;;;;;;;;;;5.80;62.90;;;;;;5093433;28;19959;-70
2024/02/27 02:55:53;;;;;;;;;;;5.80;62.80;;;;;;5091789;28;20041;-74
2024/02/27 02:58:19;;;;;;;;;;;5.80;62.80;;;;;;5108986;28;19920;-70
2024/02/27 03:00:45;;;;;;;;;;;5.80;62.70;;;;;;5092548;28;19923;-75
2024/02/27 03:03:12;;;;;;;;;;;5.80;62.80;;;;;;5091443;28;20292;-75
2024/02/27 03:05:38;;;;;;;;;;;5.80;62.60;;;;;;5091655;28;20289;-75
2024/02/27 03:08:04;;;;;;;;;;;5.80;62.80;;;;;;5092799;28;19926;-74
2024/02/27 03:10:30;;;;;;;;;;;5.80;62.70;;;;;;5091254;28;19916;-74
2024/02/27 03:12:56;;;;;;;;;;;5.90;62.80;;;;;;5091345;28;19924;-70
2024/02/27 03:15:22;;;;;;;;;;;5.80;62.60;;;;;;5091388;28;20321;-70
2024/02/27 03:17:48;;;;;;;;;;;5.80;62.60;;;;;;5091594;28;20357;-74
2024/02/27 03:20:14;;;;;;;;;;;5.80;63.00;;;;;;5090835;28;20321;-70
2024/02/27 03:22:39;;;;;;;;;;;5.80;63.50;;;;;;5092627;28;19916;-75
2024/02/27 03:25:06;;;;;;;;;;;5.80;63.00;;;;;;5074248;28;20436;-69
2024/02/27 03:27:32;;;;;;;;;;;5.80;62.10;;;;;;5092838;28;19923;-75
2024/02/27 03:29:58;;;;;;;;;;;5.80;63.10;;;;;;5091768;28;20327;-70
2024/02/27 03:32:24;;;;;;;;;;;5.80;63.30;;;;;;5090379;28;19916;-75
2024/02/27 03:34:50;;;;;;;;;;;5.90;63.10;;;;;;5092166;28;20334;-75
2024/02/27 03:37:16;;;;;;;;;;;5.80;62.50;;;;;;5091018;28;19920;-75
2024/02/27 03:39:42;;;;;;;;;;;5.90;63.90;;;;;;5092178;28;20003;-70
2024/02/27 03:42:09;;;;;;;;;;;5.80;63.10;;;;;;5090757;28;19920;-74
2024/02/27 03:44:36;;;;;;;;;;;5.80;63.10;;;;;;5090920;28;19985;-70
2024/02/27 03:47:02;;;;;;;;;;;5.90;63.00;;;;;;5090961;28;20266;-75
2024/02/27 03:49:28;;;;;;;;;;;5.90;63.80;;;;;;5091091;28;19916;-71
2024/02/27 03:51:54;;;;;;;;;;;5.90;63.50;;;;;;5091780;28;19922;-75
2024/02/27 03:54:20;;;;;;;;;;;6.00;63.10;;;;;;5092219;28;20323;-69
2024/02/27 03:56:46;;;;;;;;;;;6.00;62.00;;;;;;5092313;28;19923;-75
2024/02/27 03:59:12;;;;;;;;;;;6.00;62.60;;;;;;5091574;28;20033;-75
2024/02/27 04:01:38;;;;;;;;;;;6.00;62.90;;;;;;5090088;28;19924;-70
2024/02/27 04:04:05;;;;;;;;;;;6.10;62.60;;;;;;5091563;28;19954;-75
2024/02/27 04:06:30;;;;;;;;;;;6.10;62.30;;;;;;5090485;28;19912;-70
2024/02/27 04:08:56;;;;;;;;;;;6.10;63.40;;;;;;5091894;28;19938;-70
2024/02/27 04:11:22;;;;;;;;;;;6.10;63.20;;;;;;5091395;28;19920;-75
2024/02/27 04:13:48;;;;;;;;;;;6.20;62.40;;;;;;5090376;28;19919;-75
2024/02/27 04:16:14;;;;;;;;;;;6.20;62.70;;;;;;5091664;28;19911;-70
2024/02/27 04:18:40;;;;;;;;;;;6.20;63.00;;;;;;5073940;28;19961;-70
2024/02/27 04:21:06;;;;;;;;;;;6.20;62.90;;;;;;5090397;28;19922;-74
2024/02/27 04:23:32;;;;;;;;;;;6.30;62.70;;;;;;5073895;28;20268;-74
2024/02/27 04:26:00;;;;;;;;;;;6.30;62.50;;;;;;5091711;28;19919;-71
2024/02/27 04:28:26;;;;;;;;;;;6.40;62.30;;;;;;5090591;28;20411;-70
2024/02/27 04:30:52;;;;;;;;;;;6.40;62.80;;;;;;5089794;28;19916;-70
2024/02/27 04:33:18;;;;;;;;;;;6.40;63.30;;;;;;5091690;28;19931;-75
2024/02/27 04:35:44;;;;;;;;;;;6.40;63.50;;;;;;5090576;28;19912;-70
2024/02/27 04:38:10;;;;;;;;;;;6.40;63.40;;;;;;5092043;28;20022;-75
2024/02/27 04:40:36;;;;;;;;;;;6.40;63.20;;;;;;5089807;28;19916;-70
2024/02/27 04:43:02;;;;;;;;;;;6.50;63.10;;;;;;5090492;28;19943;-70
2024/02/27 04:45:28;;;;;;;;;;;6.60;62.90;;;;;;5090024;28;19916;-70
2024/02/27 04:47:54;;;;;;;;;;;6.60;63.30;;;;;;5090452;28;20265;-70
2024/02/27 04:50:19;;;;;;;;;;;6.50;63.70;;;;;;5090032;28;20002;-75
2024/02/27 04:52:45;;;;;;;;;;;6.50;64.00;;;;;;5091674;28;20295;-74
2024/02/27 04:55:11;;;;;;;;;;;6.50;63.90;;;;;;5090028;28;19912;-70
2024/02/27 04:57:37;;;;;;;;;;;6.50;64.00;;;;;;5090159;28;19969;-70
2024/02/27 05:00:09;;;;;;;;;;;6.50;63.90;;;;;;5089757;28;19912;-70
2024/02/27 05:02:36;;;;;;;;;;;6.50;63.70;;;;;;5090093;28;20258;-70
2024/02/27 05:05:03;;;;;;;;;;;6.60;63.50;;;;;;5089793;28;20029;-70
2024/02/27 05:07:28;;;;;;;;;;;6.60;63.30;;;;;;5091431;28;20332;-74
2024/02/27 05:09:54;;;;;;;;;;;6.70;63.20;;;;;;5089810;28;19912;-70
2024/02/27 05:12:20;;;;;;;;;;;6.70;62.90;;;;;;5092678;28;19930;-70
2024/02/27 05:14:46;;;;;;;;;;;6.70;63.20;;;;;;5094869;28;20464;-75
2024/02/27 05:17:12;;;;;;;;;;;6.70;63.90;;;;;;5093817;28;19920;-70
2024/02/27 05:19:38;;;;;;;;;;;6.80;63.70;;;;;;5093665;28;19920;-74
2024/02/27 05:22:04;;;;;;;;;;;6.70;63.70;;;;;;5094503;28;20364;-70
2024/02/27 05:24:30;;;;;;;;;;;6.80;63.50;;;;;;5093253;28;19994;-75
2024/02/27 05:26:56;;;;;;;;;;;6.70;63.90;;;;;;5093718;28;20262;-70
2024/02/27 05:29:22;;;;;;;;;;;6.80;64.10;;;;;;5093573;28;19912;-75
2024/02/27 05:31:48;;;;;;;;;;;6.80;63.80;;;;;;5092998;28;19969;-75
2024/02/27 05:34:14;;;;;;;;;;;6.80;64.10;;;;;;5092975;28;20351;-74
2024/02/27 05:36:40;;;;;;;;;;;6.80;64.40;;;;;;5093227;28;20437;-70
2024/02/27 05:39:05;;;;;;;;;;;6.80;63.80;;;;;;5093186;28;19912;-75
2024/02/27 05:41:31;;;;;;;;;;;6.80;63.90;;;;;;5093987;28;19969;-70
2024/02/27 05:43:57;;;;;;;;;;;6.80;64.00;;;;;;5094470;28;19926;-70
2024/02/27 05:46:23;;;;;;;;;;;6.90;64.20;;;;;;5092882;28;19940;-69
2024/02/27 05:48:49;;;;;;;;;;;6.90;64.20;;;;;;5092827;28;19939;-75
2024/02/27 05:51:15;;;;;;;;;;;6.90;64.70;;;;;;5092593;28;19920;-70
2024/02/27 05:53:42;;;;;;;;;;;6.90;64.70;;;;;;5109827;28;19916;-70
2024/02/27 05:56:08;;;;;;;;;;;6.90;64.50;;;;;;5093978;28;19920;-75
2024/02/27 05:58:34;;;;;;;;;;;6.90;64.50;;;;;;5075936;28;20498;-70
2024/02/27 06:01:00;;;;;;;;;;;6.90;64.70;;;;;;5093363;28;19923;-75
2024/02/27 06:03:26;;;;;;;;;;;6.90;64.50;;;;;;5092420;28;20015;-75
2024/02/27 06:05:52;;;;;;;;;;;6.90;64.50;;;;;;5093973;28;20061;-75
2024/02/27 06:08:18;;;;;;;;;;;6.90;64.40;;;;;;5094141;28;19943;-75
2024/02/27 06:10:44;;;;;;;;;;;6.90;64.30;;;;;;5092006;28;19920;-70
2024/02/27 06:13:10;;;;;;;;;;;7.00;63.40;;;;;;5092513;28;20000;-70
2024/02/27 06:15:36;;;;;;;;;;;7.00;64.20;;;;;;5092163;28;19912;-70
2024/02/27 06:18:03;;;;;;;;;;;7.10;63.60;;;;;;5093956;28;19953;-75
2024/02/27 06:23:13;;;;;;;;;;;7.10;63.80;;;;;;5092519;28;19926;-71
2024/02/27 06:25:39;;;;;;;;;;;7.20;63.50;;;;;;5092095;28;20015;-71
2024/02/27 06:28:05;;;;;;;;;;;7.20;63.10;;;;;;5093813;28;19931;-75
2024/02/27 06:30:31;;;;;;;;;;;7.30;63.20;;;;;;5091682;28;19999;-70
2024/02/27 06:32:57;;;;;;;;;;;7.30;63.20;;;;;;5091992;28;20018;-70
2024/02/27 06:35:24;;;;;;;;;;;7.30;63.60;;;;;;5075004;28;20288;-70
2024/02/27 06:37:50;;;;;;;;;;;7.30;63.70;;;;;;5092437;28;19973;-70
2024/02/27 06:40:16;;;;;;;;;;;7.30;63.70;;;;;;5074512;28;20010;-70
2024/02/27 06:42:43;;;;;;;;;;;7.40;64.00;;;;;;5092094;28;20000;-70
2024/02/27 06:45:11;;;;;;;;;;;7.40;64.60;;;;;;5092940;28;20002;-75
2024/02/27 06:47:55;;;;;;;;;;;7.40;64.50;;;;;;5091867;28;19924;-70
2024/02/27 06:50:21;;;;;;;;;;;7.50;64.50;;;;;;5074329;28;19958;-74
2024/02/27 06:52:47;;;;;;;;;;;7.50;65.00;;;;;;5093141;28;20014;-74
2024/02/27 06:55:13;;;;;;;;;;;7.60;65.00;;;;;;5091594;28;19920;-73
2024/02/27 06:57:39;;;;;;;;;;;7.60;65.00;;;;;;5093206;28;20066;-70
2024/02/27 07:00:05;;;;;;;;;;;7.60;64.90;;;;;;5091184;28;19995;-70
2024/02/27 07:02:31;;;;;;;;;;;7.70;64.90;;;;;;5091381;28;20373;-75
2024/02/27 07:04:57;;;;;;;;;;;7.60;65.20;;;;;;5091328;28;19920;-75
2024/02/27 07:07:23;;;;;;;;;;;7.80;65.30;;;;;;5093168;28;20015;-73
2024/02/27 07:09:49;;;;;;;;;;;7.80;65.30;;;;;;5092843;28;19983;-71
2024/02/27 07:12:15;;;;;;;;;;;7.90;64.60;;;;;;5091007;28;19924;-74
2024/02/27 07:14:42;;;;;;;;;;;8.00;64.20;;;;;;5092300;28;19918;-75
2024/02/27 07:17:09;;;;;;;;;;;8.10;63.80;;;;;;5091239;28;19959;-75
2024/02/27 07:19:35;;;;;;;;;;;8.20;63.50;;;;;;5092474;28;20060;-70
2024/02/27 07:22:01;;;;;;;;;;;8.30;63.40;;;;;;5090678;28;19927;-75
2024/02/27 07:24:27;;;;;;;;;;;8.30;62.60;;;;;;5091040;28;19924;-70
2024/02/27 07:26:53;;;;;;;;;;;8.40;62.80;;;;;;5091239;28;20246;-75
2024/02/27 07:29:20;;;;;;;;;;;8.40;62.80;;;;;;5091073;28;19912;-70
2024/02/27 07:31:46;;;;;;;;;;;8.50;62.60;;;;;;5090524;28;19920;-75
2024/02/27 07:34:16;;;;;;;;;;;8.50;62.50;;;;;;5091424;28;20506;-75
2024/02/27 07:36:43;;;;;;;;;;;8.60;62.10;;;;;;5092308;28;19927;-75
2024/02/27 07:39:10;;;;;;;;;;;8.70;61.60;;;;;;5092207;28;19923;-74
2024/02/27 07:41:37;;;;;;;;;;;8.90;61.60;;;;;;5090454;28;20273;-70
2024/02/27 07:44:03;;;;;;;;;;;8.90;60.50;;;;;;5090709;28;19916;-75
2024/02/27 07:46:30;;;;;;;;;;;9.00;60.60;;;;;;5091928;28;19951;-75
2024/02/27 07:48:56;;;;;;;;;;;9.10;61.10;;;;;;5090884;28;19958;-70
2024/02/27 07:51:41;;;;;;;;;;;9.20;60.50;;;;;;5091523;28;19916;-75
2024/02/27 07:54:07;;;;;;;;;;;9.20;60.30;;;;;;5091639;28;19952;-75
2024/02/27 07:56:33;;;;;;;;;;;9.30;60.60;;;;;;5090631;28;19920;-72
2024/02/27 07:59:00;;;;;;;;;;;9.30;60.60;;;;;;5091970;28;19934;-70
2024/02/27 08:01:26;;;;;;;;;;;9.10;60.80;;;;;;5090159;28;19995;-75
2024/02/27 08:03:53;;;;;;;;;;;9.00;61.10;;;;;;5090223;28;19927;-75
2024/02/27 08:06:19;;;;;;;;;;;9.10;60.80;;;;;;5090440;28;19916;-75
2024/02/27 08:08:46;;;;;;;;;;;9.20;60.20;;;;;;5091783;28;19916;-70
2024/02/27 08:11:12;;;;;;;;;;;9.30;60.10;;;;;;5089944;28;19961;-70
2024/02/27 08:13:38;;;;;;;;;;;9.60;59.80;;;;;;5090360;28;19919;-75
2024/02/27 08:16:04;;;;;;;;;;;9.80;59.40;;;;;;5090453;28;20343;-75
2024/02/27 08:18:30;;;;;;;;;;;9.90;58.00;;;;;;5090832;28;19916;-69
2024/02/27 08:20:56;;;;;;;;;;;10.00;58.30;;;;;;5089843;28;20321;-70
2024/02/27 08:23:22;;;;;;;;;;;10.10;58.00;;;;;;5073693;28;20015;-75
2024/02/27 08:25:48;;;;;;;;;;;10.30;57.90;;;;;;5090443;28;19931;-72
2024/02/27 08:28:14;;;;;;;;;;;10.30;57.00;;;;;;5091945;28;19921;-71
2024/02/27 08:30:39;;;;;;;;;;;10.30;56.40;;;;;;5089944;28;19951;-75
2024/02/27 08:33:05;;;;;;;;;;;10.40;57.00;;;;;;5090169;28;20010;-75
2024/02/27 08:35:31;;;;;;;;;;;10.50;57.00;;;;;;5090236;28;19912;-74
2024/02/27 08:37:58;;;;;;;;;;;10.40;56.70;;;;;;5090533;28;19958;-70
2024/02/27 08:40:25;;;;;;;;;;;10.50;57.00;;;;;;5089901;28;19920;-71
2024/02/27 08:42:52;;;;;;;;;;;10.60;56.30;;;;;;5090512;28;19965;-70
2024/02/27 08:45:19;;;;;;;;;;;10.70;56.90;;;;;;5091630;28;19959;-74
2024/02/27 08:47:45;;;;;;;;;;;10.70;56.50;;;;;;5077470;28;19927;-75
2024/02/27 08:50:12;;;;;;;;;;;10.80;56.60;;;;;;5094715;28;20006;-69
2024/02/27 08:52:38;;;;;;;;;;;10.90;56.50;;;;;;5111258;28;19928;-75
2024/02/27 08:55:06;;;;;;;;;;;11.00;56.30;;;;;;5093792;28;19919;-74
2024/02/27 08:57:32;;;;;;;;;;;11.00;56.10;;;;;;5093916;28;19963;-70
2024/02/27 08:59:58;;;;;;;;;;;11.00;56.00;;;;;;5095161;28;19919;-70
2024/02/27 09:02:24;;;;;;;;;;;11.00;55.50;;;;;;5094790;28;19939;-75
2024/02/27 09:04:51;;;;;;;;;;;10.90;55.70;;;;;;5093678;28;19916;-70
2024/02/27 09:07:17;;;;;;;;;;;10.90;55.50;;;;;;5093913;28;20152;-75
2024/02/27 09:09:43;;;;;;;;;;;10.90;55.20;;;;;;5093936;28;19918;-71
2024/02/27 09:12:10;;;;;;;;;;;11.00;55.70;;;;;;5093164;28;19927;-70
2024/02/27 09:14:37;;;;;;;;;;;11.00;55.50;;;;;;5093501;28;20341;-75
2024/02/27 09:17:03;;;;;;;;;;;11.00;55.10;;;;;;5093613;28;19920;-70
2024/02/27 09:19:29;;;;;;;;;;;11.20;54.50;;;;;;5093698;28;19958;-70
2024/02/27 09:21:55;;;;;;;;;;;11.20;54.40;;;;;;5076046;28;19923;-70
2024/02/27 09:24:22;;;;;;;;;;;11.20;53.90;;;;;;5093390;28;19964;-74
2024/02/27 09:26:48;;;;;;;;;;;11.30;54.20;;;;;;5094757;28;20356;-75
2024/02/27 09:29:15;;;;;;;;;;;11.40;53.80;;;;;;5076537;28;19916;-69
2024/02/27 09:31:42;;;;;;;;;;;11.60;53.40;;;;;;5094234;28;20234;-70
2024/02/27 09:34:09;;;;;;;;;;;11.70;54.00;;;;;;5092901;28;19939;-72
2024/02/27 09:36:35;;;;;;;;;;;11.80;52.50;;;;;;5093224;28;19912;-75
2024/02/27 09:39:01;;;;;;;;;;;12.00;52.80;;;;;;5093287;28;19916;-75
2024/02/27 09:41:45;;;;;;;;;;;12.10;52.80;;;;;;5093873;28;19927;-75
2024/02/27 09:44:11;;;;;;;;;;;12.30;52.00;;;;;;5094543;28;19942;-70
2024/02/27 09:46:39;;;;;;;;;;;12.50;52.00;;;;;;5094338;28;19919;-75
2024/02/27 09:49:07;;;;;;;;;;;12.60;51.50;;;;;;5093026;28;20333;-74
2024/02/27 09:51:34;;;;;;;;;;;12.70;50.90;;;;;;5092392;28;19938;-75
2024/02/27 09:54:00;;;;;;;;;;;12.60;50.50;;;;;;5092738;28;19919;-70
2024/02/27 09:56:27;;;;;;;;;;;12.60;50.50;;;;;;5092041;28;19919;-70
2024/02/27 09:58:54;;;;;;;;;;;12.70;50.10;;;;;;5092880;28;19920;-70
2024/02/27 10:01:21;;;;;;;;;;;12.80;50.50;;;;;;5075521;28;19920;-75
2024/02/27 10:03:48;;;;;;;;;;;12.90;50.60;;;;;;5092511;28;20346;-74
2024/02/27 10:06:15;;;;;;;;;;;12.90;50.20;;;;;;5092925;28;19916;-69
2024/02/27 10:09:02;;;;;;;;;;;12.90;50.10;;;;;;5092942;28;20322;-75
2024/02/27 10:11:28;;;;;;;;;;;12.90;50.20;;;;;;5092137;28;19920;-71
2024/02/27 10:13:55;;;;;;;;;;;13.10;49.70;;;;;;5092484;28;19930;-74
2024/02/27 10:16:23;;;;;;;;;;;13.20;49.10;;;;;;5092550;28;20365;-75
2024/02/27 10:19:07;;;;;;;;;;;13.30;49.20;;;;;;5109425;28;19923;-70
2024/02/27 10:21:33;;;;;;;;;;;13.30;49.20;;;;;;5091803;28;19916;-74
2024/02/27 10:23:59;;;;;;;;;;;13.20;49.10;;;;;;5092084;28;20012;-71
2024/02/27 10:26:25;;;;;;;;;;;13.20;49.10;;;;;;5093439;28;19951;-70
2024/02/27 10:28:51;;;;;;;;;;;13.20;49.20;;;;;;5092209;28;20010;-70
2024/02/27 10:31:18;;;;;;;;;;;13.20;49.00;;;;;;5091971;28;20277;-70
2024/02/27 10:33:44;;;;;;;;;;;13.20;49.20;;;;;;5093196;28;19959;-75
2024/02/27 10:36:10;;;;;;;;;;;13.40;48.80;;;;;;5108951;28;19916;-75
2024/02/27 10:38:36;;;;;;;;;;;13.40;48.30;;;;;;5093731;28;19916;-75
2024/02/27 10:41:03;;;;;;;;;;;13.50;47.80;;;;;;5091495;28;19929;-75
2024/02/27 10:43:32;;;;;;;;;;;13.70;48.00;;;;;;5074992;28;20173;-75
2024/02/27 10:45:58;;;;;;;;;;;13.70;47.60;;;;;;5108604;28;19925;-70
2024/02/27 10:48:27;;;;;;;;;;;13.90;48.00;;;;;;5092083;28;19920;-75
2024/02/27 10:50:54;;;;;;;;;;;14.10;47.90;;;;;;5092552;28;19916;-70
2024/02/27 10:53:21;;;;;;;;;;;14.30;47.20;;;;;;5091730;28;19947;-70
2024/02/27 10:55:48;;;;;;;;;;;14.50;47.10;;;;;;5091753;28;20386;-75
2024/02/27 10:58:14;;;;;;;;;;;14.50;46.10;;;;;;5091914;28;19985;-75
2024/02/27 11:00:41;;;;;;;;;;;14.40;46.20;;;;;;5092673;28;20343;-75
2024/02/27 11:03:09;;;;;;;;;;;14.30;46.80;;;;;;5091466;28;20361;-70
2024/02/27 11:05:37;;;;;;;;;;;14.30;46.90;;;;;;5091535;28;19915;-70
2024/02/27 11:08:03;;;;;;;;;;;14.20;46.70;;;;;;5090893;28;19943;-75
2024/02/27 11:10:29;;;;;;;;;;;14.20;46.70;;;;;;5090751;28;20345;-70
2024/02/27 11:12:56;;;;;;;;;;;14.10;46.40;;;;;;5091406;28;19927;-70
2024/02/27 11:15:23;;;;;;;;;;;14.10;46.80;;;;;;5091636;28;20300;-70
2024/02/27 11:18:08;;;;;;;;;;;14.20;46.70;;;;;;5091386;28;19920;-74
2024/02/27 11:20:35;;;;;;;;;;;14.30;46.50;;;;;;5090973;28;19916;-70
2024/02/27 11:23:01;;;;;;;;;;;14.50;46.70;;;;;;5091215;28;19980;-70
2024/02/27 11:25:28;;;;;;;;;;;14.60;46.50;;;;;;5091081;28;19919;-70
2024/02/27 11:27:57;;;;;;;;;;;14.90;46.10;;;;;;5074412;28;19951;-70
2024/02/27 11:30:24;;;;;;;;;;;15.10;46.00;;;;;;5090617;28;19924;-72
2024/02/27 11:32:50;;;;;;;;;;;15.30;45.40;;;;;;5090781;28;19950;-70
2024/02/27 11:35:16;;;;;;;;;;;15.60;45.00;;;;;;5074177;28;19916;-75
2024/02/27 11:37:43;;;;;;;;;;;15.80;43.60;;;;;;5091004;28;19920;-71
2024/02/27 11:40:47;;;;;;;;;;;15.90;43.70;;;;;;5090423;28;20360;-70
2024/02/27 11:43:32;;;;;;;;;;;16.00;43.00;;;;;;5092317;28;19920;-70
2024/02/27 11:46:36;;;;;;;;;;;16.00;42.50;;;;;;5107463;28;19916;-70
2024/02/27 11:49:03;;;;;;;;;;;16.00;42.70;;;;;;5091898;28;19919;-75
2024/02/27 11:51:31;;;;;;;;;;;15.80;42.80;;;;;;5090249;28;19920;-75
2024/02/27 11:53:57;;;;;;;;;;;15.70;42.90;;;;;;5090466;28;19927;-73
2024/02/27 11:56:23;;;;;;;;;;;15.50;43.00;;;;;;5092033;28;19912;-74
2024/02/27 11:58:51;;;;;;;;;;;15.40;43.20;;;;;;5090759;28;20377;-75
2024/02/27 12:01:18;;;;;;;;;;;15.20;42.80;;;;;;5090004;28;20045;-70
2024/02/27 12:03:44;;;;;;;;;;;15.10;43.00;;;;;;5107243;28;19920;-75
2024/02/27 12:06:11;;;;;;;;;;;15.10;43.50;;;;;;5090788;28;20173;-74
2024/02/27 12:08:56;;;;;;;;;;;15.10;43.50;;;;;;5090841;28;20403;-75
2024/02/27 12:11:23;;;;;;;;;;;15.10;43.20;;;;;;5091336;28;20284;-75
2024/02/27 12:13:49;;;;;;;;;;;15.20;42.60;;;;;;5073761;28;19959;-70
2024/02/27 12:16:26;;;;;;;;;;;15.30;43.10;;;;;;5090615;28;20138;-74
2024/02/27 12:18:54;;;;;;;;;;;15.30;42.50;;;;;;5090411;28;19920;-70
2024/02/27 12:21:38;;;;;;;;;;;15.20;43.10;;;;;;5093653;28;19958;-70
2024/02/27 12:24:23;;;;;;;;;;;15.00;42.80;;;;;;5095658;28;19969;-74
2024/02/27 12:26:49;;;;;;;;;;;15.00;43.30;;;;;;5094572;28;19915;-70
2024/02/27 12:29:17;;;;;;;;;;;15.00;43.80;;;;;;5094544;28;19924;-75
2024/02/27 12:31:43;;;;;;;;;;;15.10;44.00;;;;;;5093921;28;19995;-75
2024/02/27 12:34:08;;;;;;;;;;;15.20;44.30;;;;;;5095398;28;19919;-70
2024/02/27 12:36:35;;;;;;;;;;;15.30;44.70;;;;;;5095631;28;19986;-75
2024/02/27 12:39:01;;;;;;;;;;;15.30;44.70;;;;;;5111278;28;20057;-70
2024/02/27 12:41:27;;;;;;;;;;;15.10;45.50;;;;;;5093659;28;20373;-75
2024/02/27 12:43:53;;;;;;;;;;;15.10;45.70;;;;;;5094244;28;19924;-70
2024/02/27 12:46:21;;;;;;;;;;;15.10;45.70;;;;;;5094123;28;20127;-70
2024/02/27 12:48:47;;;;;;;;;;;15.20;45.70;;;;;;5094199;28;19931;-70
2024/02/27 12:51:15;;;;;;;;;;;15.20;45.50;;;;;;5093549;28;20230;-75
2024/02/27 12:53:41;;;;;;;;;;;15.20;45.80;;;;;;5093694;28;20315;-74
2024/02/27 12:56:28;;;;;;;;;;;15.10;45.80;;;;;;5093996;28;19930;-74
2024/02/27 12:58:55;;;;;;;;;;;15.00;46.60;;;;;;5095107;28;19927;-74
2024/02/27 13:01:21;;;;;;;;;;;15.00;47.20;;;;;;5093267;28;19916;-70
2024/02/27 13:03:49;;;;;;;;;;;14.90;47.50;;;;;;5094809;28;20015;-74
2024/02/27 13:06:16;;;;;;;;;;;14.80;47.80;;;;;;5095397;28;19916;-75
2024/02/27 13:08:41;;;;;;;;;;;14.70;48.60;;;;;;5093946;28;19955;-75
2024/02/27 13:11:10;;;;;;;;;;;14.70;48.80;;;;;;5093333;28;19924;-75
2024/02/27 13:13:36;;;;;;;;;;;14.70;49.00;;;;;;5076678;28;20419;-70
2024/02/27 13:16:05;;;;;;;;;;;14.60;49.20;;;;;;5076597;28;19916;-70
2024/02/27 13:18:31;;;;;;;;;;;14.60;48.70;;;;;;5093839;28;20360;-70
2024/02/27 13:20:59;;;;;;;;;;;14.60;49.60;;;;;;5094234;28;19961;-70
2024/02/27 13:23:25;;;;;;;;;;;14.50;49.80;;;;;;5093811;28;19920;-75
2024/02/27 13:25:52;;;;;;;;;;;14.40;50.00;;;;;;5093412;28;19911;-73
2024/02/27 13:28:18;;;;;;;;;;;14.40;50.50;;;;;;5093561;28;19924;-75
2024/02/27 13:30:44;;;;;;;;;;;14.30;50.70;;;;;;5093817;28;19923;-75
2024/02/27 13:33:10;;;;;;;;;;;14.20;50.90;;;;;;5093281;28;19924;-70
2024/02/27 13:35:36;;;;;;;;;;;14.20;51.00;;;;;;5093166;28;20338;-70
2024/02/27 13:38:02;;;;;;;;;;;14.10;51.30;;;;;;5094831;28;19920;-70
2024/02/27 13:40:28;;;;;;;;;;;14.00;51.50;;;;;;5075766;28;19920;-75
2024/02/27 13:42:53;;;;;;;;;;;14.00;51.80;;;;;;5094731;28;20027;-70
2024/02/27 13:45:19;;;;;;;;;;;14.00;52.10;;;;;;5075825;28;19912;-71
2024/02/27 13:47:45;;;;;;;;;;;13.90;52.20;;;;;;5094619;28;19923;-74
2024/02/27 13:50:11;;;;;;;;;;;13.90;52.30;;;;;;5092503;28;20287;-70
2024/02/27 13:52:37;;;;;;;;;;;13.80;52.60;;;;;;5092969;28;19954;-74
2024/02/27 13:55:04;;;;;;;;;;;13.80;52.90;;;;;;5093856;28;20291;-74
2024/02/27 13:57:30;;;;;;;;;;;13.70;52.90;;;;;;5075989;28;19927;-74
2024/02/27 13:59:56;;;;;;;;;;;13.70;53.40;;;;;;5092841;28;19950;-70
2024/02/27 14:02:23;;;;;;;;;;;13.70;54.40;;;;;;5093675;28;19924;-74
2024/02/27 14:04:48;;;;;;;;;;;13.70;54.80;;;;;;5093970;28;20030;-74
2024/02/27 14:07:14;;;;;;;;;;;13.60;54.60;;;;;;5092733;28;19920;-70
2024/02/27 14:09:40;;;;;;;;;;;13.60;54.60;;;;;;5092646;28;20402;-70
2024/02/27 14:12:07;;;;;;;;;;;13.60;54.90;;;;;;5092137;28;19919;-70
2024/02/27 14:14:34;;;;;;;;;;;13.50;55.10;;;;;;5092440;28;19954;-74
2024/02/27 14:17:00;;;;;;;;;;;13.50;54.90;;;;;;5092529;28;20329;-69
2024/02/27 14:19:26;;;;;;;;;;;13.50;55.20;;;;;;5093722;28;19912;-74
2024/02/27 14:21:52;;;;;;;;;;;13.50;55.80;;;;;;5091692;28;20471;-74
2024/02/27 14:24:18;;;;;;;;;;;13.40;56.00;;;;;;5093455;28;20377;-70